createdAt,value
2023-03-29T00:18:22.871Z,16.3
2023-03-29T00:48:23.291Z,16.3
2023-03-29T01:18:33.742Z,16.3
2023-03-29T01:48:34.323Z,16.3
2023-03-29T02:18:34.901Z,16.3
2023-03-29T02:48:35.343Z,16.3
2023-03-29T03:18:36.109Z,16.3
2023-03-29T03:48:36.507Z,16.3
2023-03-29T04:18:37.560Z,16.3
2023-03-29T04:48:38.086Z,16.3
2023-03-29T05:18:38.499Z,16.2
2023-03-29T05:48:38.894Z,16.2
2023-03-29T06:18:39.301Z,16.2
2023-03-29T06:48:39.764Z,16.2
2023-03-29T07:18:40.196Z,16.2
2023-03-29T07:48:51.248Z,16.3
2023-03-29T08:18:51.997Z,16.3
2023-03-29T08:49:02.874Z,16.3
2023-03-29T09:19:03.291Z,16.3
2023-03-29T09:49:15.455Z,16.4
2023-03-29T10:19:20.493Z,16.4
2023-03-29T11:19:30.949Z,16.5
2023-03-29T11:49:31.346Z,16.4
2023-03-29T12:19:43.763Z,16.5
2023-03-29T13:19:54.392Z,16.6
2023-03-29T13:49:54.835Z,16.6
2023-03-29T14:19:55.249Z,16.7
2023-03-29T14:49:55.668Z,16.8
2023-03-29T15:19:56.083Z,16.9
2023-03-29T15:50:06.870Z,17
2023-03-29T16:20:07.348Z,16.9
2023-03-29T16:50:17.835Z,16.9
2023-03-29T17:20:18.556Z,16.9
2023-03-29T17:50:19.250Z,16.9
2023-03-29T18:20:19.695Z,16.9
2023-03-29T18:50:21.049Z,16.9
2023-03-29T19:20:21.655Z,16.9
2023-03-29T19:50:22.083Z,16.9
2023-03-29T20:20:22.796Z,16.9
2023-03-29T20:50:23.311Z,16.9
2023-03-29T21:20:23.920Z,16.8
2023-03-29T21:50:24.343Z,16.8
2023-03-29T22:20:24.779Z,16.8
2023-03-29T23:20:35.579Z,16.9
2023-03-29T23:50:35.994Z,16.9
